This is the latest recevied weather packets stored in our database for station/object WX5KDM. If no packets are shown the sender has not sent any weather packets the latest 10 day(s).
| Time | Temp. | Humidity | Pressure | Rain* | Wind** | Luminosity | Snow |
|---|---|---|---|---|---|---|---|
| 1777051373 | 23.33° C | 81% | 1012.4 hPa | 0 mm | - | - | - |
| 1777051069 | 23.89° C | 81% | 1012.4 hPa | 0 mm | - | - | - |
| 1777050765 | 23.33° C | 81% | 1012.4 hPa | 0 mm | - | - | - |
| 1777050460 | 22.78° C | 84% | 1012.6 hPa | 0 mm | - | - | - |
| 1777050156 | 22.78° C | 84% | 1012.8 hPa | 0 mm | - | - | - |
| 1777049850 | 22.22° C | 83% | 1013 hPa | 0 mm | - | - | - |
| 1777049546 | 21.67° C | 89% | 1012.9 hPa | 0 mm | - | - | - |
| 1777049244 | 21.11° C | 89% | 1013 hPa | 0 mm | - | - | - |
| 1777048941 | 21.11° C | 89% | 1013.2 hPa | 0 mm | - | - | - |
| 1777048635 | 21.11° C | 88% | 1013.6 hPa | 0 mm | - | - | - |
| 1777048331 | 21.11° C | 86% | 1013.5 hPa | 0 mm | - | - | - |
| 1777048030 | 22.22° C | 83% | 1013.4 hPa | 0 mm | - | - | - |
| 1777047726 | 22.78° C | 78% | 1013.4 hPa | 0 mm | - | - | - |
| 1777047421 | 22.78° C | 77% | 1013.4 hPa | 0 mm | - | - | - |
| 1777047116 | 23.33° C | 76% | 1013.5 hPa | 0 mm | - | - | - |
| 1777046815 | 22.78° C | 77% | 1013.3 hPa | 0 mm | - | - | - |
| 1777046510 | 22.78° C | 76% | 1013.5 hPa | 0 mm | - | - | - |
| 1777046206 | 22.78° C | 77% | 1013.7 hPa | 0 mm | - | - | - |
| 1777045902 | 22.78° C | 77% | 1013.7 hPa | 0 mm | - | - | - |
| 1777045598 | 22.78° C | 76% | 1013.7 hPa | 0 mm | - | - | - |
* Rain latest hour (hover to see other rain measurements)
** Current wind speed in m/s (hover to see current wind gust speed)